ETH338A HAAB-HUEN
Flight info
| Callsign | ETH338A |
|---|---|
| Flight time | N/A |
| Altitude | 36000 |
| Route | ETGOM1A ETGOM UL432 IMVIP IMVIP2A |
| Aircraft | B738/M-SDE2E3FGHIRWXY/LB1 |
Departure
| Time | N/A |
|---|---|
| Airport | Addis Ababa Bole International Airport (HAAB) |
Arrival
| Time | 2026-04-24 20:06 |
|---|---|
| Airport | Entebbe International Airport (HUEN) |
| Time | Latitude | Longitude | Altitude | Speed | Heading |
|---|---|---|---|---|---|
| 2026-04-24 18:54 | 6.56653 | 37.44824 | 35964 ft | 482 kts | 209° |
| 2026-04-24 18:55 | 6.47776 | 37.40071 | 35961 ft | 482 kts | 209° |
| 2026-04-24 18:56 | 6.41870 | 37.36914 | 35974 ft | 480 kts | 209° |
| 2026-04-24 18:56 | 6.35964 | 37.33761 | 35957 ft | 481 kts | 209° |
| 2026-04-24 18:57 | 6.30063 | 37.30606 | 35967 ft | 481 kts | 209° |
| 2026-04-24 18:57 | 6.24157 | 37.27450 | 35964 ft | 481 kts | 209° |
| 2026-04-24 18:58 | 6.18249 | 37.24294 | 35966 ft | 481 kts | 209° |
| 2026-04-24 18:58 | 6.12341 | 37.21141 | 35966 ft | 481 kts | 209° |
| 2026-04-24 18:59 | 6.06433 | 37.17987 | 35966 ft | 481 kts | 209° |
| 2026-04-24 18:59 | 6.00530 | 37.14837 | 35961 ft | 480 kts | 209° |
| 2026-04-24 19:00 | 5.94628 | 37.11689 | 35961 ft | 480 kts | 209° |
| 2026-04-24 19:00 | 5.88726 | 37.08541 | 35951 ft | 480 kts | 210° |
| 2026-04-24 19:01 | 5.82834 | 37.05400 | 35947 ft | 479 kts | 210° |
| 2026-04-24 19:01 | 5.76948 | 37.02264 | 35947 ft | 479 kts | 210° |
| 2026-04-24 19:02 | 5.71066 | 36.99132 | 35929 ft | 478 kts | 210° |
| 2026-04-24 19:02 | 5.65191 | 36.95999 | 35930 ft | 478 kts | 210° |
| 2026-04-24 19:03 | 5.59328 | 36.92874 | 35913 ft | 477 kts | 210° |
| 2026-04-24 19:03 | 5.53464 | 36.89750 | 35908 ft | 477 kts | 210° |
| 2026-04-24 19:04 | 5.47605 | 36.86631 | 35908 ft | 476 kts | 210° |
| 2026-04-24 19:04 | 5.41756 | 36.83517 | 35907 ft | 476 kts | 210° |
| 2026-04-24 19:05 | 5.35901 | 36.80401 | 35899 ft | 476 kts | 210° |
| 2026-04-24 19:05 | 5.30054 | 36.77289 | 35896 ft | 476 kts | 210° |
| 2026-04-24 19:06 | 5.24244 | 36.74198 | 35893 ft | 476 kts | 210° |
| 2026-04-24 19:06 | 5.18395 | 36.71087 | 35888 ft | 476 kts | 209° |
| 2026-04-24 19:07 | 5.12546 | 36.67977 | 35882 ft | 476 kts | 209° |
| 2026-04-24 19:07 | 5.06696 | 36.64867 | 35872 ft | 475 kts | 209° |
| 2026-04-24 19:08 | 5.00856 | 36.61763 | 35870 ft | 475 kts | 209° |
| 2026-04-24 19:08 | 4.95016 | 36.58659 | 35871 ft | 475 kts | 209° |
| 2026-04-24 19:09 | 4.89176 | 36.55556 | 35860 ft | 475 kts | 209° |
| 2026-04-24 19:09 | 4.83333 | 36.52452 | 35854 ft | 475 kts | 209° |
| 2026-04-24 19:10 | 4.77496 | 36.49352 | 35846 ft | 475 kts | 209° |
| 2026-04-24 19:10 | 4.71653 | 36.46249 | 35840 ft | 475 kts | 209° |
| 2026-04-24 19:11 | 4.65810 | 36.43147 | 35834 ft | 475 kts | 209° |
| 2026-04-24 19:11 | 4.59962 | 36.40043 | 35832 ft | 475 kts | 209° |
| 2026-04-24 19:12 | 4.54115 | 36.36940 | 35829 ft | 476 kts | 209° |
| 2026-04-24 19:12 | 4.48269 | 36.33837 | 35826 ft | 476 kts | 209° |
| 2026-04-24 19:13 | 4.43403 | 36.31256 | 35821 ft | 476 kts | 210° |
| 2026-04-24 19:13 | 4.36560 | 36.27626 | 35822 ft | 476 kts | 209° |
| 2026-04-24 19:14 | 4.30741 | 36.24540 | 35816 ft | 476 kts | 209° |
| 2026-04-24 19:14 | 4.24884 | 36.21434 | 35814 ft | 477 kts | 209° |
| 2026-04-24 19:15 | 4.19021 | 36.18325 | 35815 ft | 477 kts | 210° |
| 2026-04-24 19:15 | 4.13152 | 36.15214 | 35815 ft | 477 kts | 210° |
| 2026-04-24 19:16 | 4.04351 | 36.10548 | 35812 ft | 477 kts | 210° |
| 2026-04-24 19:16 | 3.98479 | 36.07439 | 35817 ft | 478 kts | 209° |
| 2026-04-24 19:17 | 3.92596 | 36.04341 | 35815 ft | 478 kts | 209° |
| 2026-04-24 19:17 | 3.86710 | 36.01245 | 35813 ft | 478 kts | 209° |
| 2026-04-24 19:18 | 3.80817 | 35.98143 | 35810 ft | 478 kts | 209° |
| 2026-04-24 19:18 | 3.74927 | 35.95042 | 35807 ft | 479 kts | 209° |
| 2026-04-24 19:19 | 3.69029 | 35.91936 | 35811 ft | 479 kts | 209° |
| 2026-04-24 19:19 | 3.63134 | 35.88833 | 35813 ft | 479 kts | 209° |
| 2026-04-24 19:20 | 3.57233 | 35.85727 | 35808 ft | 479 kts | 209° |
| 2026-04-24 19:20 | 3.51335 | 35.82623 | 35812 ft | 479 kts | 209° |
| 2026-04-24 19:21 | 3.45426 | 35.79514 | 35812 ft | 479 kts | 209° |
| 2026-04-24 19:21 | 3.39525 | 35.76410 | 35806 ft | 479 kts | 209° |
| 2026-04-24 19:22 | 3.33624 | 35.73305 | 35794 ft | 479 kts | 209° |
| 2026-04-24 19:22 | 3.27719 | 35.70199 | 35784 ft | 479 kts | 209° |
| 2026-04-24 19:23 | 3.21821 | 35.67097 | 35780 ft | 479 kts | 209° |
| 2026-04-24 19:23 | 3.15960 | 35.64015 | 35776 ft | 478 kts | 209° |
| 2026-04-24 19:24 | 3.10218 | 35.60691 | 35767 ft | 476 kts | 218° |
| 2026-04-24 19:24 | 3.05357 | 35.56225 | 35775 ft | 474 kts | 226° |
| 2026-04-24 19:25 | 3.00676 | 35.51583 | 35785 ft | 474 kts | 226° |
| 2026-04-24 19:25 | 2.95969 | 35.46966 | 35797 ft | 474 kts | 225° |
| 2026-04-24 19:26 | 2.91237 | 35.42377 | 35813 ft | 474 kts | 225° |
| 2026-04-24 19:26 | 2.86494 | 35.37795 | 35827 ft | 474 kts | 225° |
| 2026-04-24 19:27 | 2.81746 | 35.33208 | 35835 ft | 474 kts | 225° |
| 2026-04-24 19:27 | 2.77008 | 35.28629 | 35844 ft | 474 kts | 225° |
| 2026-04-24 19:28 | 2.72265 | 35.24043 | 35848 ft | 474 kts | 225° |
| 2026-04-24 19:28 | 2.67520 | 35.19458 | 35854 ft | 474 kts | 225° |
| 2026-04-24 19:29 | 2.60405 | 35.12581 | 35865 ft | 474 kts | 225° |
| 2026-04-24 19:30 | 2.55655 | 35.07990 | 35878 ft | 475 kts | 225° |
| 2026-04-24 19:30 | 2.50906 | 35.03402 | 35893 ft | 475 kts | 225° |
| 2026-04-24 19:31 | 2.46156 | 34.98812 | 35907 ft | 475 kts | 225° |
| 2026-04-24 19:31 | 2.41673 | 34.94040 | 35926 ft | 474 kts | 230° |
| 2026-04-24 19:32 | 2.37390 | 34.88978 | 35925 ft | 474 kts | 231° |
| 2026-04-24 19:32 | 2.33175 | 34.83975 | 35940 ft | 473 kts | 231° |
| 2026-04-24 19:33 | 2.28903 | 34.78963 | 35940 ft | 473 kts | 230° |
| 2026-04-24 19:33 | 2.24619 | 34.73968 | 35945 ft | 473 kts | 230° |
| 2026-04-24 19:34 | 2.20337 | 34.68981 | 35947 ft | 473 kts | 230° |
| 2026-04-24 19:34 | 2.16057 | 34.63993 | 35946 ft | 473 kts | 230° |
| 2026-04-24 19:35 | 2.11776 | 34.59003 | 35946 ft | 472 kts | 230° |
| 2026-04-24 19:35 | 2.07499 | 34.54018 | 35943 ft | 472 kts | 230° |
| 2026-04-24 19:36 | 2.03226 | 34.49037 | 35942 ft | 472 kts | 230° |
| 2026-04-24 19:36 | 1.98952 | 34.44057 | 35935 ft | 472 kts | 230° |
| 2026-04-24 19:37 | 1.94678 | 34.39077 | 35930 ft | 472 kts | 230° |
| 2026-04-24 19:37 | 1.90404 | 34.34096 | 35929 ft | 472 kts | 230° |
| 2026-04-24 19:38 | 1.86132 | 34.29118 | 35928 ft | 472 kts | 230° |
| 2026-04-24 19:38 | 1.81836 | 34.24154 | 35929 ft | 472 kts | 228° |
| 2026-04-24 19:39 | 1.77287 | 34.19418 | 35936 ft | 472 kts | 226° |
| 2026-04-24 19:39 | 1.72642 | 34.14764 | 35921 ft | 473 kts | 226° |
| 2026-04-24 19:40 | 1.68010 | 34.10087 | 35928 ft | 474 kts | 226° |
| 2026-04-24 19:40 | 1.64174 | 34.06178 | 35926 ft | 474 kts | 226° |
| 2026-04-24 19:41 | 1.58809 | 34.00692 | 35925 ft | 475 kts | 226° |
| 2026-04-24 19:41 | 1.54960 | 33.96756 | 35915 ft | 466 kts | 226° |
| 2026-04-24 19:42 | 1.49749 | 33.91430 | 35921 ft | 458 kts | 226° |
| 2026-04-24 19:42 | 1.45283 | 33.86865 | 35459 ft | 459 kts | 226° |
| 2026-04-24 19:42 | 1.43781 | 33.85331 | 35197 ft | 455 kts | 226° |
| 2026-04-24 19:43 | 1.41575 | 33.83078 | 34788 ft | 451 kts | 226° |
| 2026-04-24 19:43 | 1.39388 | 33.80844 | 34379 ft | 448 kts | 226° |
| 2026-04-24 19:43 | 1.37242 | 33.78651 | 33950 ft | 446 kts | 226° |
| 2026-04-24 19:43 | 1.35047 | 33.76408 | 33468 ft | 444 kts | 226° |
| 2026-04-24 19:44 | 1.32927 | 33.74241 | 33033 ft | 441 kts | 226° |
| 2026-04-24 19:44 | 1.30793 | 33.72060 | 32605 ft | 438 kts | 226° |
| 2026-04-24 19:44 | 1.28671 | 33.69892 | 32186 ft | 435 kts | 226° |
| 2026-04-24 19:44 | 1.26566 | 33.67742 | 31769 ft | 432 kts | 226° |
| 2026-04-24 19:45 | 1.24473 | 33.65604 | 31369 ft | 429 kts | 226° |
| 2026-04-24 19:45 | 1.22390 | 33.63476 | 30951 ft | 427 kts | 226° |
| 2026-04-24 19:45 | 1.20319 | 33.61360 | 30538 ft | 425 kts | 226° |
| 2026-04-24 19:45 | 1.18252 | 33.59248 | 30135 ft | 424 kts | 226° |
| 2026-04-24 19:46 | 1.16195 | 33.57147 | 29672 ft | 422 kts | 226° |
| 2026-04-24 19:46 | 1.14153 | 33.55061 | 29230 ft | 419 kts | 226° |
| 2026-04-24 19:46 | 1.12122 | 33.52986 | 28792 ft | 416 kts | 226° |
| 2026-04-24 19:46 | 1.10106 | 33.50929 | 28379 ft | 412 kts | 226° |
| 2026-04-24 19:47 | 1.08105 | 33.48886 | 27958 ft | 410 kts | 226° |
| 2026-04-24 19:47 | 1.06121 | 33.46859 | 27550 ft | 407 kts | 226° |
| 2026-04-24 19:47 | 1.04149 | 33.44843 | 27148 ft | 404 kts | 226° |
| 2026-04-24 19:47 | 1.02191 | 33.42842 | 26750 ft | 402 kts | 226° |
| 2026-04-24 19:48 | 1.00242 | 33.40852 | 26351 ft | 399 kts | 225° |
| 2026-04-24 19:48 | 0.98303 | 33.38870 | 25954 ft | 398 kts | 225° |
| 2026-04-24 19:48 | 0.94450 | 33.34935 | 25140 ft | 395 kts | 225° |
| 2026-04-24 19:49 | 0.90624 | 33.31027 | 24325 ft | 392 kts | 225° |
| 2026-04-24 19:49 | 0.86814 | 33.27135 | 23540 ft | 391 kts | 225° |
| 2026-04-24 19:50 | 0.81326 | 33.21217 | 22241 ft | 384 kts | 240° |
| 2026-04-24 19:50 | 0.80330 | 33.18766 | 21895 ft | 380 kts | 253° |
| 2026-04-24 19:51 | 0.78926 | 33.13719 | 21138 ft | 375 kts | 255° |
| 2026-04-24 19:51 | 0.78243 | 33.11219 | 20768 ft | 372 kts | 255° |
| 2026-04-24 19:52 | 0.76844 | 33.06266 | 20023 ft | 368 kts | 254° |
| 2026-04-24 19:52 | 0.76139 | 33.03815 | 19650 ft | 366 kts | 254° |
| 2026-04-24 19:52 | 0.75435 | 33.01374 | 19279 ft | 365 kts | 254° |
| 2026-04-24 19:52 | 0.74485 | 32.99031 | 18884 ft | 364 kts | 238° |
| 2026-04-24 19:53 | 0.73084 | 32.96938 | 18545 ft | 362 kts | 235° |
| 2026-04-24 19:53 | 0.71631 | 32.94887 | 18142 ft | 361 kts | 234° |
| 2026-04-24 19:53 | 0.68743 | 32.90819 | 17364 ft | 357 kts | 234° |
| 2026-04-24 19:54 | 0.67327 | 32.88795 | 16997 ft | 354 kts | 235° |
| 2026-04-24 19:54 | 0.65927 | 32.86782 | 16632 ft | 352 kts | 235° |
| 2026-04-24 19:54 | 0.64541 | 32.84779 | 16281 ft | 349 kts | 235° |
| 2026-04-24 19:54 | 0.63167 | 32.82789 | 15928 ft | 347 kts | 235° |
| 2026-04-24 19:55 | 0.62264 | 32.81479 | 15688 ft | 345 kts | 235° |
| 2026-04-24 19:55 | 0.60448 | 32.78846 | 15229 ft | 343 kts | 235° |
| 2026-04-24 19:55 | 0.59098 | 32.76886 | 14878 ft | 341 kts | 235° |
| 2026-04-24 19:55 | 0.57760 | 32.74946 | 14540 ft | 339 kts | 235° |
| 2026-04-24 19:56 | 0.56423 | 32.73007 | 14179 ft | 338 kts | 235° |
| 2026-04-24 19:56 | 0.55092 | 32.71077 | 13828 ft | 337 kts | 235° |
| 2026-04-24 19:56 | 0.53768 | 32.69158 | 13421 ft | 335 kts | 234° |
| 2026-04-24 19:56 | 0.52441 | 32.67234 | 12982 ft | 336 kts | 235° |
| 2026-04-24 19:57 | 0.51121 | 32.65321 | 12614 ft | 334 kts | 235° |
| 2026-04-24 19:57 | 0.49809 | 32.63418 | 12241 ft | 332 kts | 235° |
| 2026-04-24 19:57 | 0.48519 | 32.61548 | 11886 ft | 330 kts | 235° |
| 2026-04-24 19:57 | 0.47219 | 32.59662 | 11522 ft | 329 kts | 235° |
| 2026-04-24 19:58 | 0.45909 | 32.57762 | 11150 ft | 327 kts | 235° |
| 2026-04-24 19:58 | 0.44643 | 32.55926 | 10811 ft | 326 kts | 235° |
| 2026-04-24 19:58 | 0.43360 | 32.54065 | 10746 ft | 313 kts | 235° |
| 2026-04-24 19:58 | 0.42148 | 32.52308 | 10672 ft | 302 kts | 235° |
| 2026-04-24 19:59 | 0.40974 | 32.50606 | 10566 ft | 294 kts | 235° |
| 2026-04-24 19:59 | 0.39821 | 32.48935 | 10326 ft | 291 kts | 235° |
| 2026-04-24 19:59 | 0.38690 | 32.47295 | 10045 ft | 290 kts | 235° |
| 2026-04-24 19:59 | 0.37534 | 32.45617 | 9751 ft | 289 kts | 235° |
| 2026-04-24 20:00 | 0.36400 | 32.43973 | 9488 ft | 287 kts | 234° |
| 2026-04-24 20:00 | 0.35286 | 32.42359 | 9195 ft | 285 kts | 234° |
| 2026-04-24 20:00 | 0.33975 | 32.40909 | 8944 ft | 279 kts | 210° |
| 2026-04-24 20:00 | 0.32190 | 32.40342 | 8739 ft | 267 kts | 182° |
| 2026-04-24 20:01 | 0.30361 | 32.40311 | 8428 ft | 260 kts | 178° |
| 2026-04-24 20:01 | 0.28578 | 32.40419 | 8111 ft | 254 kts | 173° |
| 2026-04-24 20:01 | 0.26842 | 32.40636 | 7825 ft | 247 kts | 171° |
| 2026-04-24 20:01 | 0.25181 | 32.40873 | 7501 ft | 236 kts | 171° |
| 2026-04-24 20:02 | 0.24093 | 32.41028 | 7306 ft | 229 kts | 171° |
| 2026-04-24 20:02 | 0.22077 | 32.41313 | 6946 ft | 211 kts | 171° |
| 2026-04-24 20:02 | 0.20687 | 32.41508 | 6680 ft | 194 kts | 172° |
| 2026-04-24 20:02 | 0.19411 | 32.41686 | 6450 ft | 177 kts | 172° |
| 2026-04-24 20:03 | 0.18249 | 32.41848 | 6275 ft | 162 kts | 172° |
| 2026-04-24 20:03 | 0.17139 | 32.42003 | 6055 ft | 158 kts | 172° |
| 2026-04-24 20:03 | 0.16055 | 32.42155 | 5853 ft | 159 kts | 172° |
| 2026-04-24 20:03 | 0.14949 | 32.42309 | 5644 ft | 162 kts | 172° |
| 2026-04-24 20:04 | 0.13837 | 32.42465 | 5463 ft | 159 kts | 172° |
| 2026-04-24 20:04 | 0.12745 | 32.42618 | 5264 ft | 158 kts | 173° |
| 2026-04-24 20:04 | 0.11631 | 32.42762 | 5082 ft | 164 kts | 172° |
| 2026-04-24 20:04 | 0.10495 | 32.42943 | 4904 ft | 164 kts | 171° |
| 2026-04-24 20:05 | 0.09395 | 32.43108 | 4614 ft | 156 kts | 173° |
| 2026-04-24 20:05 | 0.08309 | 32.43261 | 4330 ft | 160 kts | 171° |
| 2026-04-24 20:05 | 0.07214 | 32.43422 | 4163 ft | 157 kts | 172° |
| 2026-04-24 20:05 | 0.06138 | 32.43539 | 3941 ft | 154 kts | 172° |
| 2026-04-24 20:06 | 0.05101 | 32.43695 | 3788 ft | 144 kts | 171° |
| 2026-04-24 20:06 | 0.04320 | 32.43795 | 3780 ft | 81 kts | 172° |
| 2026-04-24 20:06 | 0.03966 | 32.43841 | 3772 ft | 33 kts | 172° |
| 2026-04-24 20:06 | 0.03745 | 32.43873 | 3774 ft | 31 kts | 172° |
| 2026-04-24 20:07 | 0.03605 | 32.43892 | 3776 ft | 30 kts | 172° |
| 2026-04-24 20:07 | 0.03398 | 32.43921 | 3772 ft | 21 kts | 172° |
| 2026-04-24 20:07 | 0.03259 | 32.43941 | 3767 ft | 20 kts | 172° |
| 2026-04-24 20:07 | 0.03124 | 32.43960 | 3768 ft | 19 kts | 171° |
| 2026-04-24 20:08 | 0.03009 | 32.43978 | 3768 ft | 17 kts | 169° |
| 2026-04-24 20:08 | 0.02915 | 32.44039 | 3766 ft | 16 kts | 141° |
| 2026-04-24 20:08 | 0.02842 | 32.44099 | 3765 ft | 10 kts | 140° |
| 2026-04-24 20:08 | 0.02833 | 32.44160 | 3769 ft | 10 kts | 45° |
| 2026-04-24 20:09 | 0.02899 | 32.44164 | 3768 ft | 10 kts | 353° |
| 2026-04-24 20:09 | 0.02964 | 32.44155 | 3762 ft | 9 kts | 352° |
| 2026-04-24 20:09 | 0.03027 | 32.44146 | 3768 ft | 9 kts | 352° |
| 2026-04-24 20:09 | 0.03089 | 32.44138 | 3767 ft | 10 kts | 353° |
| 2026-04-24 20:10 | 0.03170 | 32.44127 | 3771 ft | 13 kts | 351° |
| 2026-04-24 20:10 | 0.03264 | 32.44114 | 3769 ft | 15 kts | 352° |
| 2026-04-24 20:10 | 0.03368 | 32.44099 | 3771 ft | 15 kts | 352° |
| 2026-04-24 20:10 | 0.03472 | 32.44085 | 3769 ft | 15 kts | 353° |
| 2026-04-24 20:11 | 0.03572 | 32.44072 | 3770 ft | 14 kts | 353° |
| 2026-04-24 20:11 | 0.03671 | 32.44061 | 3775 ft | 16 kts | 354° |
| 2026-04-24 20:11 | 0.03804 | 32.44041 | 3773 ft | 22 kts | 346° |
| 2026-04-24 20:11 | 0.03950 | 32.44018 | 3782 ft | 20 kts | 352° |
| 2026-04-24 20:12 | 0.04086 | 32.44000 | 3771 ft | 19 kts | 353° |
| 2026-04-24 20:12 | 0.04197 | 32.44004 | 3775 ft | 13 kts | 56° |
| 2026-04-24 20:12 | 0.04216 | 32.44088 | 3782 ft | 12 kts | 78° |
| 2026-04-24 20:12 | 0.04271 | 32.44136 | 3785 ft | 12 kts | 2° |
| 2026-04-24 20:13 | 0.04350 | 32.44126 | 3779 ft | 11 kts | 352° |
| 2026-04-24 20:13 | 0.04420 | 32.44118 | 3779 ft | 7 kts | 4° |
| 2026-04-24 20:13 | 0.04430 | 32.44140 | 3786 ft | 3 kts | 86° |
| 2026-04-24 20:13 | 0.04432 | 32.44163 | 3779 ft | 3 kts | 82° |
| 2026-04-24 20:14 | 0.04435 | 32.44180 | 3781 ft | 0 kts | 81° |